createdAt,value
2022-10-10T00:00:36.312Z,30.60
2022-10-10T00:01:40.483Z,31.40
2022-10-10T00:02:43.548Z,30.73
2022-10-10T00:03:47.603Z,35.70
2022-10-10T00:04:53.209Z,33.65
2022-10-10T00:05:58.730Z,30.10
2022-10-10T00:07:01.723Z,33.05
2022-10-10T00:08:08.535Z,31.30
2022-10-10T00:09:11.706Z,32.42
2022-10-10T00:10:15.777Z,31.40
2022-10-10T00:11:21.550Z,29.17
2022-10-10T00:12:25.816Z,28.40
2022-10-10T00:13:28.965Z,36.72
2022-10-10T00:14:33.236Z,29.75
2022-10-10T00:15:36.274Z,31.90
2022-10-10T00:16:40.427Z,27.48
2022-10-10T00:17:44.066Z,34.40
2022-10-10T00:18:48.197Z,31.17
2022-10-10T00:19:51.241Z,30.50
2022-10-10T00:20:55.408Z,35.85
2022-10-10T00:21:59.856Z,29.15
2022-10-10T00:23:04.017Z,27.23
2022-10-10T00:24:07.508Z,32.03
2022-10-10T00:25:12.345Z,27.10
2022-10-10T00:26:18.906Z,29.15
2022-10-10T00:27:23.653Z,31.63
2022-10-10T00:28:26.763Z,31.35
2022-10-10T00:29:30.886Z,29.58
2022-10-10T00:30:33.825Z,27.15
2022-10-10T00:31:37.986Z,30.05
2022-10-10T00:32:41.011Z,30.25
2022-10-10T00:33:45.217Z,31.35
2022-10-10T00:34:48.367Z,30.50
2022-10-10T00:35:52.504Z,31.05
2022-10-10T00:36:55.472Z,30.05
2022-10-10T00:38:01.084Z,30.77
2022-10-10T00:39:04.294Z,30.33
2022-10-10T00:40:09.596Z,27.60
2022-10-10T00:41:12.892Z,31.38
2022-10-10T00:42:18.566Z,36.55
2022-10-10T00:43:22.271Z,39.25
2022-10-10T00:44:28.058Z,33.17
2022-10-10T00:45:37.123Z,33.92
2022-10-10T00:46:42.077Z,28.60
2022-10-10T00:47:45.149Z,31.77
2022-10-10T00:48:49.326Z,34.05
2022-10-10T00:49:52.358Z,31.95
2022-10-10T00:50:58.977Z,36.63
2022-10-10T00:52:02.155Z,30.70
2022-10-10T00:53:08.995Z,25.50
2022-10-10T00:54:13.408Z,32.72
2022-10-10T00:55:18.544Z,29.85
2022-10-10T00:56:27.219Z,29.55
2022-10-10T00:57:30.209Z,30.42
2022-10-10T00:58:35.647Z,31.95
2022-10-10T00:59:40.537Z,29.17
2022-10-10T01:00:44.937Z,26.70
2022-10-10T01:01:48.415Z,26.65
2022-10-10T01:02:53.059Z,31.80
2022-10-10T01:03:58.373Z,33.42
2022-10-10T01:05:02.385Z,31.90
2022-10-10T01:06:06.265Z,30.58
2022-10-10T01:07:13.163Z,35.92
2022-10-10T01:08:18.364Z,35.58
2022-10-10T01:09:22.593Z,27.45
2022-10-10T01:10:26.029Z,29.45
2022-10-10T01:11:52.478Z,32.40
2022-10-10T01:13:04.563Z,27.25
2022-10-10T01:14:18.125Z,31.08
2022-10-10T01:15:26.804Z,28.80
2022-10-10T01:16:37.357Z,28.70
2022-10-10T01:17:45.493Z,27.13
2022-10-10T01:18:56.607Z,35.33
2022-10-10T01:20:33.275Z,26.77
2022-10-10T01:21:40.413Z,19.48
2022-10-10T01:22:53.473Z,25.58
2022-10-10T01:24:42.436Z,22.70
2022-10-10T01:25:58.354Z,27.98
2022-10-10T01:27:37.436Z,26.60
2022-10-10T01:28:45.974Z,22.92
2022-10-10T01:29:53.474Z,22.25
2022-10-10T01:30:57.132Z,21.10
2022-10-10T01:32:06.326Z,28.98
2022-10-10T01:33:27.345Z,26.13
2022-10-10T01:34:35.975Z,18.25
2022-10-10T01:35:49.082Z,21.83
2022-10-10T01:36:58.200Z,19.80
2022-10-10T01:38:08.800Z,22.60
2022-10-10T01:39:21.080Z,25.65
2022-10-10T01:40:31.247Z,20.00
2022-10-10T01:41:39.306Z,21.98
2022-10-10T01:42:48.399Z,20.20
2022-10-10T01:43:55.233Z,24.20
2022-10-10T01:44:59.340Z,21.08
2022-10-10T01:46:10.261Z,17.80
2022-10-10T01:47:15.042Z,19.67
2022-10-10T01:48:22.372Z,20.63
2022-10-10T01:49:30.470Z,24.00
2022-10-10T01:50:37.788Z,22.75
2022-10-10T01:51:50.787Z,21.88
2022-10-10T01:53:04.152Z,23.80
2022-10-10T01:54:18.487Z,22.77
2022-10-10T01:55:32.840Z,22.40
2022-10-10T01:56:40.916Z,22.40
2022-10-10T01:57:51.823Z,26.55
2022-10-10T01:59:14.653Z,26.65
2022-10-10T02:00:18.812Z,21.20
2022-10-10T02:01:27.770Z,22.15
2022-10-10T02:02:40.809Z,24.00
2022-10-10T02:03:47.416Z,24.67
2022-10-10T02:04:54.185Z,21.73
2022-10-10T02:06:02.190Z,18.60
2022-10-10T02:07:08.852Z,21.88
2022-10-10T02:08:16.956Z,21.52
2022-10-10T02:09:23.772Z,16.48
2022-10-10T02:10:29.955Z,18.65
2022-10-10T02:11:34.802Z,24.33
2022-10-10T02:12:40.026Z,21.05
2022-10-10T02:13:45.804Z,25.65
2022-10-10T02:14:53.225Z,20.00
2022-10-10T02:15:58.320Z,21.00
2022-10-10T02:17:02.816Z,18.90
2022-10-10T02:18:07.044Z,18.73
2022-10-10T02:19:13.632Z,15.95
2022-10-10T02:20:20.511Z,21.88
2022-10-10T02:21:26.250Z,20.20
2022-10-10T02:22:30.470Z,18.23
2022-10-10T02:23:35.763Z,18.98
2022-10-10T02:24:38.914Z,20.83
2022-10-10T02:25:43.463Z,18.38
2022-10-10T02:26:50.195Z,21.02
2022-10-10T02:28:01.316Z,18.70
2022-10-10T02:29:06.831Z,16.63
2022-10-10T02:30:14.293Z,19.17
2022-10-10T02:31:21.512Z,16.88
2022-10-10T02:32:33.749Z,23.50
2022-10-10T02:33:44.915Z,15.68
2022-10-10T02:34:51.038Z,16.52
2022-10-10T02:35:55.224Z,16.48
2022-10-10T02:37:00.930Z,16.55
2022-10-10T02:38:06.275Z,19.90
2022-10-10T02:39:10.575Z,15.68
2022-10-10T02:40:17.942Z,15.48
2022-10-10T02:41:22.830Z,17.17
2022-10-10T02:42:27.246Z,19.65
2022-10-10T02:43:32.619Z,17.85
2022-10-10T02:44:35.985Z,17.60
2022-10-10T02:45:42.103Z,18.42
2022-10-10T02:46:45.792Z,15.63
2022-10-10T02:47:49.782Z,18.95
2022-10-10T02:48:53.339Z,18.80
2022-10-10T02:49:57.609Z,22.20
2022-10-10T02:51:00.801Z,58.10
2022-10-10T02:52:05.668Z,40.55
2022-10-10T02:53:09.461Z,105.95
2022-10-10T02:54:13.488Z,24.08
2022-10-10T02:55:17.517Z,125.55
2022-10-10T02:56:22.281Z,21.50
2022-10-10T02:57:25.274Z,44.28
2022-10-10T02:58:29.345Z,21.77
2022-10-10T02:59:32.511Z,66.82
2022-10-10T03:00:36.652Z,32.65
2022-10-10T03:01:41.325Z,35.42
2022-10-10T03:02:46.401Z,23.38
2022-10-10T03:03:49.529Z,34.63
2022-10-10T03:04:53.589Z,33.92
2022-10-10T03:05:56.551Z,40.72
2022-10-10T03:07:00.592Z,28.88
2022-10-10T03:08:05.891Z,27.65
2022-10-10T03:09:13.322Z,28.80
2022-10-10T03:10:16.411Z,22.58
2022-10-10T03:11:20.445Z,32.03
2022-10-10T03:12:23.441Z,26.92
2022-10-10T03:13:27.613Z,23.98
2022-10-10T03:14:31.029Z,25.17
2022-10-10T03:15:34.958Z,113.97
2022-10-10T03:16:37.953Z,38.88
2022-10-10T03:17:43.424Z,22.13
2022-10-10T03:18:46.950Z,124.15
2022-10-10T03:19:51.212Z,77.88
2022-10-10T03:20:56.257Z,16.60
2022-10-10T03:22:00.371Z,25.80
2022-10-10T03:23:03.625Z,81.57
2022-10-10T03:24:08.173Z,33.45
2022-10-10T03:25:11.140Z,53.58
2022-10-10T03:26:15.261Z,61.60
2022-10-10T03:27:18.311Z,25.50
2022-10-10T03:28:22.815Z,30.83
2022-10-10T03:29:25.881Z,44.63
2022-10-10T03:30:30.056Z,70.00
2022-10-10T03:31:33.379Z,62.25
2022-10-10T03:32:37.543Z,28.52
2022-10-10T03:33:41.932Z,27.58
2022-10-10T03:34:46.349Z,18.83
2022-10-10T03:35:49.829Z,19.85
2022-10-10T03:36:53.981Z,22.92
2022-10-10T03:37:57.091Z,19.05
2022-10-10T03:39:01.142Z,22.17
2022-10-10T03:40:04.569Z,22.20
2022-10-10T03:41:08.699Z,22.13
2022-10-10T03:42:11.660Z,20.30
2022-10-10T03:43:16.944Z,22.98
2022-10-10T03:44:19.884Z,25.30
2022-10-10T03:45:24.092Z,25.27
2022-10-10T03:46:27.038Z,26.38
2022-10-10T03:47:31.129Z,19.63
2022-10-10T03:48:34.330Z,24.73
2022-10-10T03:49:39.867Z,23.00
2022-10-10T03:50:43.175Z,21.17
2022-10-10T03:51:47.203Z,22.50
2022-10-10T03:52:50.397Z,25.95
2022-10-10T03:53:56.051Z,23.90
2022-10-10T03:54:59.052Z,19.63
2022-10-10T03:56:03.071Z,20.17
2022-10-10T03:57:06.089Z,16.55
2022-10-10T03:58:10.254Z,18.67
2022-10-10T03:59:13.392Z,22.27
2022-10-10T04:00:17.441Z,31.73
2022-10-10T04:01:20.416Z,22.25
2022-10-10T04:02:24.539Z,32.55
2022-10-10T04:03:27.772Z,26.23
2022-10-10T04:04:32.226Z,17.30
2022-10-10T04:05:37.860Z,18.05
2022-10-10T04:06:41.868Z,17.40
2022-10-10T04:07:44.781Z,69.53
2022-10-10T04:08:48.879Z,113.15
2022-10-10T04:09:51.997Z,90.47
2022-10-10T04:10:57.137Z,48.35
2022-10-10T04:12:00.172Z,81.30
2022-10-10T04:13:04.371Z,45.47
2022-10-10T04:14:07.410Z,24.08
2022-10-10T04:15:12.414Z,24.55
2022-10-10T04:16:15.822Z,31.85
2022-10-10T04:17:19.832Z,28.52
2022-10-10T04:18:23.723Z,22.65
2022-10-10T04:19:27.923Z,15.25
2022-10-10T04:20:30.921Z,20.52
2022-10-10T04:21:37.052Z,20.63
2022-10-10T04:22:40.052Z,20.27
2022-10-10T04:23:44.724Z,19.90
2022-10-10T04:24:48.538Z,20.60
2022-10-10T04:25:54.180Z,21.15
2022-10-10T04:26:57.761Z,19.75
2022-10-10T04:28:02.186Z,16.63
2022-10-10T04:29:05.870Z,17.88
2022-10-10T04:30:10.810Z,17.05
2022-10-10T04:31:14.008Z,22.40
2022-10-10T04:32:17.990Z,17.63
2022-10-10T04:33:21.276Z,32.72
2022-10-10T04:34:25.304Z,20.63
2022-10-10T04:35:28.462Z,20.63
2022-10-10T04:36:32.703Z,22.30
2022-10-10T04:37:37.678Z,18.38
2022-10-10T04:38:42.026Z,23.83
2022-10-10T04:39:45.066Z,15.13
2022-10-10T04:40:50.131Z,22.90
2022-10-10T04:41:53.167Z,23.90
2022-10-10T04:42:57.368Z,24.63
2022-10-10T04:44:00.677Z,18.58
2022-10-10T04:45:05.125Z,22.55
2022-10-10T04:46:08.231Z,23.92
2022-10-10T04:47:13.222Z,24.15
2022-10-10T04:48:16.348Z,19.85
2022-10-10T04:49:20.315Z,18.13
2022-10-10T04:50:23.932Z,16.67
2022-10-10T04:51:28.656Z,21.45
2022-10-10T04:52:31.690Z,17.65
2022-10-10T04:53:37.595Z,13.38
2022-10-10T04:54:40.945Z,12.73
2022-10-10T04:55:45.713Z,19.70
2022-10-10T04:56:48.863Z,12.60
2022-10-10T04:57:52.918Z,15.68
2022-10-10T04:58:55.910Z,15.45
2022-10-10T04:59:59.941Z,14.35
2022-10-10T05:01:04.478Z,14.25
2022-10-10T05:02:08.578Z,12.45
2022-10-10T05:03:12.845Z,13.45
2022-10-10T05:04:17.052Z,13.13
2022-10-10T05:05:20.031Z,15.48
2022-10-10T05:06:24.070Z,14.57
2022-10-10T05:07:27.040Z,13.88
2022-10-10T05:08:31.034Z,14.60
2022-10-10T05:09:36.029Z,12.32
2022-10-10T05:10:40.731Z,18.95
2022-10-10T05:11:43.721Z,16.05
2022-10-10T05:12:47.886Z,14.07
2022-10-10T05:13:51.201Z,10.85
2022-10-10T05:14:55.321Z,12.73
2022-10-10T05:15:58.292Z,10.80
2022-10-10T05:17:02.599Z,11.02
2022-10-10T05:18:05.913Z,15.25
2022-10-10T05:19:09.921Z,17.95
2022-10-10T05:20:12.933Z,23.50
2022-10-10T05:21:16.971Z,54.28
2022-10-10T05:22:19.910Z,18.85
2022-10-10T05:23:24.283Z,22.10
2022-10-10T05:24:27.330Z,18.35
2022-10-10T05:25:32.863Z,17.33
2022-10-10T05:26:38.655Z,21.10
2022-10-10T05:27:46.408Z,22.42
2022-10-10T05:28:49.374Z,31.35
2022-10-10T05:29:53.643Z,22.63
2022-10-10T05:30:56.591Z,25.35
2022-10-10T05:32:00.613Z,18.50
2022-10-10T05:33:03.534Z,25.60
2022-10-10T05:34:07.558Z,26.02
2022-10-10T05:35:10.554Z,58.28
2022-10-10T05:36:15.114Z,20.27
2022-10-10T05:37:18.354Z,24.73
2022-10-10T05:38:22.354Z,23.20
2022-10-10T05:39:25.539Z,23.73
2022-10-10T05:40:29.634Z,19.95
2022-10-10T05:41:34.376Z,22.15
2022-10-10T05:42:38.425Z,33.90
2022-10-10T05:43:41.568Z,27.92
2022-10-10T05:44:45.571Z,27.80
2022-10-10T05:45:48.573Z,26.20
2022-10-10T05:46:52.725Z,28.80
2022-10-10T05:47:55.854Z,28.58
2022-10-10T05:48:59.881Z,28.88
2022-10-10T05:50:02.760Z,30.38
2022-10-10T05:51:08.779Z,25.48
2022-10-10T05:52:11.740Z,29.75
2022-10-10T05:53:15.862Z,31.02
2022-10-10T05:54:19.962Z,29.60
2022-10-10T05:55:23.158Z,30.50
2022-10-10T05:56:27.252Z,24.30
2022-10-10T05:57:31.761Z,24.95
2022-10-10T05:58:35.884Z,23.50
2022-10-10T05:59:38.804Z,24.42
2022-10-10T06:00:42.879Z,22.85
2022-10-10T06:01:45.949Z,20.27
2022-10-10T06:02:50.423Z,18.50
2022-10-10T06:03:56.235Z,16.40
2022-10-10T06:05:00.300Z,14.88
2022-10-10T06:06:03.751Z,15.20
2022-10-10T06:07:07.744Z,20.27
2022-10-10T06:08:12.322Z,17.90
2022-10-10T06:09:16.730Z,12.93
2022-10-10T06:10:19.922Z,13.00
2022-10-10T06:11:26.190Z,11.50
2022-10-10T06:12:29.217Z,12.40
2022-10-10T06:13:35.108Z,10.32
2022-10-10T06:14:38.162Z,9.77
2022-10-10T06:15:43.060Z,9.20
2022-10-10T06:16:46.353Z,8.82
2022-10-10T06:17:50.364Z,11.77
2022-10-10T06:18:53.975Z,8.60
2022-10-10T06:19:58.105Z,8.60
2022-10-10T06:21:02.564Z,7.00
2022-10-10T06:22:06.770Z,6.70
2022-10-10T06:23:10.012Z,8.18
2022-10-10T06:24:14.012Z,16.52
2022-10-10T06:25:38.420Z,6.18
2022-10-10T06:26:41.219Z,5.93
2022-10-10T06:27:44.292Z,5.38
2022-10-10T06:28:51.088Z,6.05
2022-10-10T06:29:54.202Z,7.40
2022-10-10T06:31:02.020Z,7.50
2022-10-10T06:32:05.031Z,4.60
2022-10-10T06:33:09.157Z,6.00
2022-10-10T06:34:13.188Z,8.32
2022-10-10T06:35:16.331Z,5.05
2022-10-10T06:36:21.238Z,7.30
2022-10-10T06:37:24.472Z,4.97
2022-10-10T06:38:28.994Z,3.67
2022-10-10T06:39:32.172Z,4.95
2022-10-10T06:40:36.279Z,4.60
2022-10-10T06:41:39.394Z,5.07
2022-10-10T06:42:47.472Z,6.22
2022-10-10T06:43:56.100Z,8.77
2022-10-10T06:44:59.276Z,6.13
2022-10-10T06:46:03.469Z,4.15
2022-10-10T06:47:06.522Z,4.63
2022-10-10T06:48:11.213Z,4.47
2022-10-10T06:49:14.275Z,3.38
2022-10-10T06:50:18.471Z,6.22
2022-10-10T06:51:21.488Z,2.88
2022-10-10T06:52:25.913Z,3.83
2022-10-10T06:53:28.912Z,2.92
2022-10-10T06:54:33.297Z,4.82
2022-10-10T06:55:36.292Z,3.50
2022-10-10T06:56:40.262Z,5.53
2022-10-10T06:57:43.197Z,2.53
2022-10-10T06:58:47.893Z,3.67
2022-10-10T06:59:52.499Z,4.35
2022-10-10T07:00:58.341Z,2.78
2022-10-10T07:02:01.316Z,2.85
2022-10-10T07:03:05.511Z,3.78
2022-10-10T07:04:11.040Z,3.50
2022-10-10T07:05:16.602Z,3.88
2022-10-10T07:06:20.873Z,2.63
2022-10-10T07:07:24.173Z,2.53
2022-10-10T07:08:28.703Z,3.63
2022-10-10T07:09:31.841Z,2.40
2022-10-10T07:10:36.047Z,2.38
2022-10-10T07:11:45.434Z,3.85
2022-10-10T07:12:49.766Z,4.10
2022-10-10T07:13:54.410Z,3.05
2022-10-10T07:14:58.826Z,3.90
2022-10-10T07:16:03.095Z,7.93
2022-10-10T07:17:06.061Z,3.47
2022-10-10T07:18:10.182Z,2.67
2022-10-10T07:19:13.593Z,4.90
2022-10-10T07:20:17.649Z,5.38
2022-10-10T07:21:21.950Z,6.88
2022-10-10T07:22:25.445Z,7.57
2022-10-10T07:23:29.872Z,4.50
2022-10-10T07:24:33.001Z,6.85
2022-10-10T07:25:39.375Z,2.47
2022-10-10T07:26:43.432Z,3.03
2022-10-10T07:27:46.413Z,3.83
2022-10-10T07:28:50.510Z,3.85
2022-10-10T07:29:53.596Z,2.95
2022-10-10T07:31:02.776Z,4.40
2022-10-10T07:32:05.781Z,4.25
2022-10-10T07:33:09.840Z,12.38
2022-10-10T07:34:12.814Z,3.72
2022-10-10T07:35:16.961Z,3.47
2022-10-10T07:36:19.944Z,10.40
2022-10-10T07:37:24.053Z,7.38
2022-10-10T07:38:28.292Z,5.80
2022-10-10T07:39:31.211Z,6.72
2022-10-10T07:40:35.218Z,5.95
2022-10-10T07:41:39.161Z,6.25
2022-10-10T07:42:42.065Z,4.93
2022-10-10T07:43:46.153Z,5.90
2022-10-10T07:44:49.135Z,4.57
2022-10-10T07:45:53.292Z,5.05
2022-10-10T07:46:57.679Z,5.35
2022-10-10T07:48:01.677Z,6.40
2022-10-10T07:49:04.722Z,2.75
2022-10-10T07:50:09.864Z,4.00
2022-10-10T07:51:12.949Z,3.15
2022-10-10T07:52:17.930Z,5.88
2022-10-10T07:53:22.238Z,3.67
2022-10-10T07:54:25.452Z,9.70
2022-10-10T07:55:29.911Z,4.55
2022-10-10T07:56:34.144Z,6.43
2022-10-10T07:57:37.742Z,3.50
2022-10-10T07:58:41.934Z,4.50
2022-10-10T07:59:45.962Z,5.50
2022-10-10T08:00:50.126Z,9.35
2022-10-10T08:01:53.644Z,1.98
2022-10-10T08:02:59.192Z,2.63
2022-10-10T08:04:02.253Z,4.85
2022-10-10T08:05:06.963Z,4.03
2022-10-10T08:06:14.019Z,3.15
2022-10-10T08:07:17.206Z,4.45
2022-10-10T08:08:21.352Z,6.38
2022-10-10T08:09:25.756Z,3.53
2022-10-10T08:10:29.029Z,8.02
2022-10-10T08:11:33.158Z,4.47
2022-10-10T08:12:36.544Z,5.72
2022-10-10T08:13:42.597Z,5.50
2022-10-10T08:14:46.718Z,5.47
2022-10-10T08:15:51.397Z,2.75
2022-10-10T08:16:55.561Z,4.35
2022-10-10T08:18:01.201Z,4.05
2022-10-10T08:19:05.536Z,2.30
2022-10-10T08:20:09.317Z,4.00
2022-10-10T08:21:14.878Z,2.67
2022-10-10T08:22:17.881Z,4.07
2022-10-10T08:23:23.794Z,4.07
2022-10-10T08:24:27.146Z,2.30
2022-10-10T08:25:31.278Z,4.15
2022-10-10T08:26:34.292Z,9.02
2022-10-10T08:27:38.480Z,6.38
2022-10-10T08:28:41.757Z,2.05
2022-10-10T08:29:45.884Z,4.82
2022-10-10T08:30:49.972Z,2.25
2022-10-10T08:31:53.119Z,3.75
2022-10-10T08:32:57.203Z,5.55
2022-10-10T08:34:02.141Z,2.95
2022-10-10T08:35:08.131Z,3.20
2022-10-10T08:36:13.307Z,2.38
2022-10-10T08:37:17.994Z,3.63
2022-10-10T08:38:21.288Z,2.45
2022-10-10T08:39:25.452Z,5.20
2022-10-10T08:40:30.206Z,7.75
2022-10-10T08:41:40.864Z,3.65
2022-10-10T08:42:52.521Z,2.78
2022-10-10T08:44:01.194Z,6.70
2022-10-10T08:45:10.624Z,4.95
2022-10-10T08:46:18.912Z,5.85
2022-10-10T08:47:25.372Z,12.00
2022-10-10T08:48:30.677Z,8.85
2022-10-10T08:49:39.001Z,3.40
2022-10-10T08:50:44.231Z,3.33
2022-10-10T08:51:53.884Z,6.88
2022-10-10T08:52:59.938Z,2.50
2022-10-10T08:54:05.012Z,5.43
2022-10-10T08:55:15.278Z,3.97
2022-10-10T08:56:21.834Z,6.28
2022-10-10T08:57:29.437Z,3.97
2022-10-10T08:58:35.289Z,4.80
2022-10-10T08:59:41.758Z,5.07
2022-10-10T09:00:48.295Z,15.82
2022-10-10T09:02:18.278Z,7.68
2022-10-10T09:03:26.013Z,2.25
2022-10-10T09:04:32.662Z,3.55
2022-10-10T09:05:49.858Z,3.47
2022-10-10T09:07:02.302Z,2.88
2022-10-10T09:08:17.616Z,3.00
2022-10-10T09:09:29.476Z,3.90
2022-10-10T09:10:36.541Z,9.75
2022-10-10T09:11:50.670Z,2.75
2022-10-10T09:12:59.706Z,4.65
2022-10-10T09:14:16.202Z,3.80
2022-10-10T09:15:22.036Z,7.30
2022-10-10T09:16:33.823Z,2.50
2022-10-10T09:17:41.037Z,4.93
2022-10-10T09:18:55.957Z,2.10
2022-10-10T09:20:07.939Z,3.60
2022-10-10T09:21:16.546Z,4.63
2022-10-10T09:22:25.384Z,3.92
2022-10-10T09:23:32.835Z,2.35
2022-10-10T09:24:42.610Z,3.72
2022-10-10T09:25:52.760Z,2.10
2022-10-10T09:27:00.831Z,3.60
2022-10-10T09:28:09.268Z,6.90
2022-10-10T09:29:28.801Z,4.47
2022-10-10T09:30:32.891Z,8.32
2022-10-10T09:31:39.580Z,4.43
2022-10-10T09:32:43.983Z,12.23
2022-10-10T09:33:53.678Z,3.00
2022-10-10T09:35:01.950Z,3.22
2022-10-10T09:36:08.710Z,2.42
2022-10-10T09:37:35.284Z,4.00
2022-10-10T09:38:45.361Z,2.45
2022-10-10T09:39:53.445Z,2.60
2022-10-10T09:40:59.411Z,3.25
2022-10-10T09:42:06.207Z,3.00
2022-10-10T09:43:12.923Z,4.65
2022-10-10T09:44:17.036Z,5.15
2022-10-10T09:45:22.013Z,4.43
2022-10-10T09:46:26.644Z,3.72
2022-10-10T09:47:30.774Z,3.70
2022-10-10T09:48:36.172Z,3.72
2022-10-10T09:49:39.082Z,3.92
2022-10-10T09:50:43.944Z,5.38
2022-10-10T09:51:49.676Z,5.10
2022-10-10T09:52:54.260Z,3.85
2022-10-10T09:53:58.262Z,3.65
2022-10-10T09:55:03.292Z,4.15
2022-10-10T09:56:08.093Z,2.58
2022-10-10T09:57:13.489Z,3.40
2022-10-10T09:58:25.440Z,7.10
2022-10-10T09:59:40.096Z,3.50
2022-10-10T10:00:44.344Z,3.42
2022-10-10T10:02:03.617Z,3.58
2022-10-10T10:03:15.641Z,3.80
2022-10-10T10:04:28.647Z,2.90
2022-10-10T10:05:33.361Z,4.97
2022-10-10T10:06:37.839Z,5.40
2022-10-10T10:07:48.929Z,6.90
2022-10-10T10:08:54.936Z,3.67
2022-10-10T10:09:59.958Z,3.58
2022-10-10T10:11:05.178Z,4.05
2022-10-10T10:12:08.291Z,5.07
2022-10-10T10:13:15.171Z,3.17
2022-10-10T10:14:27.087Z,3.97
2022-10-10T10:15:33.331Z,4.30
2022-10-10T10:16:40.412Z,5.10
2022-10-10T10:17:43.478Z,13.07
2022-10-10T10:18:48.417Z,6.22
2022-10-10T10:19:52.200Z,3.80
2022-10-10T10:21:12.062Z,4.18
2022-10-10T10:22:34.529Z,6.15
2022-10-10T10:23:42.776Z,2.83
2022-10-10T10:24:48.241Z,3.78
2022-10-10T10:25:58.431Z,2.75
2022-10-10T10:27:11.118Z,4.30
2022-10-10T10:28:21.358Z,7.15
2022-10-10T10:29:30.327Z,3.67
2022-10-10T10:30:34.401Z,3.45
2022-10-10T10:31:58.112Z,4.22
2022-10-10T10:33:06.051Z,5.45
2022-10-10T10:34:24.508Z,5.63
2022-10-10T10:35:30.603Z,3.30
2022-10-10T10:36:40.781Z,5.72
2022-10-10T10:37:53.830Z,3.08
2022-10-10T10:39:05.181Z,3.25
2022-10-10T10:40:23.034Z,3.30
2022-10-10T10:41:31.800Z,4.60
2022-10-10T10:42:44.001Z,9.55
2022-10-10T10:44:10.601Z,3.55
2022-10-10T10:45:16.910Z,5.50
2022-10-10T10:46:29.191Z,4.22
2022-10-10T10:47:41.073Z,2.70
2022-10-10T10:48:47.142Z,3.17
2022-10-10T10:49:59.240Z,3.17
2022-10-10T10:51:08.519Z,3.63
2022-10-10T10:52:21.954Z,4.30
2022-10-10T10:53:30.829Z,2.35
2022-10-10T10:54:59.500Z,3.70
2022-10-10T10:56:13.412Z,2.80
2022-10-10T10:57:32.951Z,5.28
2022-10-10T10:59:23.536Z,15.98
2022-10-10T11:01:19.890Z,3.83
2022-10-10T11:01:57.010Z,6.30
2022-10-10T11:03:35.056Z,2.15
2022-10-10T11:05:19.330Z,6.97
2022-10-10T11:06:34.041Z,7.57
2022-10-10T11:07:45.474Z,3.10
2022-10-10T11:08:56.102Z,2.97
2022-10-10T11:10:03.306Z,9.55
2022-10-10T11:11:24.634Z,10.57
2022-10-10T11:12:46.231Z,5.45
2022-10-10T11:13:55.503Z,2.85
2022-10-10T11:15:02.849Z,2.60
2022-10-10T11:16:20.335Z,2.33
2022-10-10T11:17:38.974Z,4.70
2022-10-10T11:18:46.092Z,2.67
2022-10-10T11:19:57.074Z,6.78
2022-10-10T11:21:05.650Z,5.93
2022-10-10T11:22:11.938Z,3.80
2022-10-10T11:23:20.036Z,5.43
2022-10-10T11:24:33.822Z,4.18
2022-10-10T11:25:43.172Z,2.75
2022-10-10T11:26:51.356Z,4.35
2022-10-10T11:27:57.858Z,4.40
2022-10-10T11:29:03.884Z,5.72
2022-10-10T11:30:14.501Z,5.65
2022-10-10T11:31:20.909Z,2.88
2022-10-10T11:32:29.789Z,9.38
2022-10-10T11:33:37.013Z,2.75
2022-10-10T11:34:43.819Z,5.07
2022-10-10T11:35:51.761Z,5.28
2022-10-10T11:36:56.469Z,10.95
2022-10-10T11:38:03.739Z,4.63
2022-10-10T11:39:16.049Z,5.03
2022-10-10T11:40:34.872Z,2.50
2022-10-10T11:41:41.427Z,4.63
2022-10-10T11:42:50.252Z,4.78
2022-10-10T11:43:57.476Z,16.30
2022-10-10T11:45:03.868Z,9.13
2022-10-10T11:46:15.630Z,13.10
2022-10-10T11:47:24.892Z,3.20
2022-10-10T11:48:36.843Z,3.95
2022-10-10T11:49:45.250Z,5.77
2022-10-10T11:50:53.422Z,4.65
2022-10-10T11:52:35.400Z,4.07
2022-10-10T11:53:43.378Z,4.30
2022-10-10T11:54:51.717Z,3.07
2022-10-10T11:55:58.918Z,5.33
2022-10-10T11:57:05.991Z,8.37
2022-10-10T11:58:28.710Z,3.77
2022-10-10T11:59:35.172Z,3.43
2022-10-10T12:00:41.780Z,5.43
2022-10-10T12:01:49.934Z,5.63
2022-10-10T12:02:56.560Z,2.40
2022-10-10T12:04:00.663Z,6.03
2022-10-10T12:05:06.403Z,5.67
2022-10-10T12:06:15.480Z,4.33
2022-10-10T12:07:23.273Z,5.37
2022-10-10T12:08:31.256Z,4.97
2022-10-10T12:09:39.088Z,2.63
2022-10-10T12:10:46.422Z,3.73
2022-10-10T12:11:55.211Z,4.10
2022-10-10T12:13:04.759Z,5.97
2022-10-10T12:14:10.854Z,4.10
2022-10-10T12:15:27.601Z,5.70
2022-10-10T12:16:32.051Z,3.97
2022-10-10T12:17:43.734Z,3.77
2022-10-10T12:18:51.510Z,3.60
2022-10-10T12:19:55.915Z,4.20
2022-10-10T12:21:08.268Z,5.63
2022-10-10T12:22:23.980Z,4.07
2022-10-10T12:23:30.260Z,3.80
2022-10-10T12:24:38.640Z,5.60
2022-10-10T12:25:46.325Z,7.53
2022-10-10T12:27:11.859Z,4.17
2022-10-10T12:28:28.345Z,6.37
2022-10-10T12:29:46.817Z,7.70
2022-10-10T12:31:31.515Z,4.20
2022-10-10T12:32:42.410Z,4.00
2022-10-10T12:34:15.413Z,4.10
2022-10-10T12:35:38.691Z,4.13
2022-10-10T12:37:18.517Z,2.77
2022-10-10T12:38:24.301Z,3.03
2022-10-10T12:39:36.090Z,10.20
2022-10-10T12:41:11.783Z,5.93
2022-10-10T12:42:36.473Z,13.70
2022-10-10T12:43:46.069Z,7.07
2022-10-10T12:44:51.853Z,4.27
2022-10-10T12:46:08.509Z,2.93
2022-10-10T12:47:59.658Z,3.53
2022-10-10T12:49:01.410Z,3.13
2022-10-10T12:50:08.211Z,4.10
2022-10-10T12:51:20.892Z,3.03
2022-10-10T12:52:27.931Z,3.13
2022-10-10T12:53:33.825Z,4.57
2022-10-10T12:54:41.676Z,3.83
2022-10-10T12:55:47.302Z,4.33
2022-10-10T12:56:53.476Z,6.53
2022-10-10T12:57:59.920Z,3.93
2022-10-10T12:59:03.510Z,3.57
2022-10-10T13:00:17.874Z,5.20
2022-10-10T13:01:25.763Z,7.43
2022-10-10T13:02:30.204Z,2.87
2022-10-10T13:03:35.443Z,3.30
2022-10-10T13:04:44.190Z,4.87
2022-10-10T13:05:48.238Z,3.63
2022-10-10T13:06:56.277Z,7.43
2022-10-10T13:08:01.237Z,3.53
2022-10-10T13:09:06.918Z,3.60
2022-10-10T13:10:22.508Z,3.23
2022-10-10T13:11:25.685Z,5.17
2022-10-10T13:12:32.592Z,12.47
2022-10-10T13:13:35.912Z,3.07
2022-10-10T13:14:42.053Z,3.33
2022-10-10T13:15:55.061Z,5.53
2022-10-10T13:16:59.443Z,4.13
2022-10-10T13:18:03.651Z,3.10
2022-10-10T13:19:06.935Z,4.20
2022-10-10T13:20:28.902Z,5.63
2022-10-10T13:21:35.173Z,3.07
2022-10-10T13:22:38.521Z,3.23
2022-10-10T13:25:11.788Z,5.83
2022-10-10T13:26:28.023Z,4.63
2022-10-10T13:27:33.911Z,4.23
2022-10-10T13:28:37.495Z,6.63
2022-10-10T13:29:42.421Z,3.23
2022-10-10T13:30:47.340Z,4.60
2022-10-10T13:31:52.600Z,5.13
2022-10-10T13:32:57.520Z,3.30
2022-10-10T13:34:03.813Z,3.60
2022-10-10T13:35:15.281Z,3.83
2022-10-10T13:36:21.558Z,10.17
2022-10-10T13:37:26.076Z,4.13
2022-10-10T13:38:29.106Z,5.67
2022-10-10T13:39:35.781Z,3.20
2022-10-10T13:40:40.230Z,3.20
2022-10-10T13:41:45.739Z,4.93
2022-10-10T13:42:50.151Z,4.80
2022-10-10T13:43:53.741Z,3.63
2022-10-10T13:45:00.417Z,5.67
2022-10-10T13:46:05.632Z,8.17
2022-10-10T13:48:01.562Z,4.40
2022-10-10T13:49:15.553Z,3.37
2022-10-10T13:50:22.349Z,3.57
2022-10-10T13:51:44.117Z,3.23
2022-10-10T13:52:47.193Z,4.90
2022-10-10T13:53:53.272Z,2.60
2022-10-10T13:55:16.242Z,5.97
2022-10-10T13:56:26.253Z,3.77
2022-10-10T13:57:29.189Z,5.60
2022-10-10T13:58:39.441Z,6.90
2022-10-10T13:59:43.924Z,8.30
2022-10-10T14:00:55.428Z,6.30
2022-10-10T14:02:02.162Z,5.27
2022-10-10T14:03:13.902Z,8.80
2022-10-10T14:04:21.920Z,6.90
2022-10-10T14:05:28.854Z,3.10
2022-10-10T14:06:33.212Z,5.03
2022-10-10T14:07:36.413Z,3.00
2022-10-10T14:08:41.610Z,8.73
2022-10-10T14:09:52.624Z,5.17
2022-10-10T14:10:58.564Z,4.63
2022-10-10T14:12:04.583Z,6.27
2022-10-10T14:13:18.949Z,4.40
2022-10-10T14:14:25.195Z,5.32
2022-10-10T14:15:35.289Z,3.37
2022-10-10T14:16:39.242Z,3.10
2022-10-10T14:17:42.194Z,5.27
2022-10-10T14:18:46.386Z,5.18
2022-10-10T14:19:51.960Z,5.33
2022-10-10T14:20:56.469Z,7.60
2022-10-10T14:22:00.772Z,4.78
2022-10-10T14:23:05.071Z,6.07
2022-10-10T14:24:10.079Z,6.63
2022-10-10T14:25:13.188Z,8.25
2022-10-10T14:26:19.517Z,5.55
2022-10-10T14:27:25.061Z,6.20
2022-10-10T14:28:31.095Z,3.92
2022-10-10T14:29:34.262Z,7.97
2022-10-10T14:30:38.267Z,4.15
2022-10-10T14:31:41.597Z,7.25
2022-10-10T14:32:45.673Z,7.70
2022-10-10T14:33:49.655Z,6.40
2022-10-10T14:34:55.171Z,6.60
2022-10-10T14:35:59.764Z,3.85
2022-10-10T14:37:04.028Z,7.55
2022-10-10T14:38:07.197Z,4.78
2022-10-10T14:39:12.887Z,5.90
2022-10-10T14:40:19.816Z,3.13